Time;durP1;ratioP1;P1;durP2;ratioP2;P2;SDS_P1;SDS_P2;PMS_P1;PMS_P2;Temp;Humidity;BMP_temperature;BMP_pressure;BME280_temperature;BME280_humidity;BME280_pressure;Samples;Min_cycle;Max_cycle;Signal;HPM_P1;HPM_P2
2023/07/29 00:04:51;;;;;;;2.10;1.80;;;25.50;63.00;;;;;;221761;1263;22606;-50
2023/07/29 00:09:55;;;;;;;1.80;1.70;;;25.50;63.20;;;;;;221885;1263;22507;-52
2023/07/29 00:14:59;;;;;;;2.00;1.90;;;25.50;62.80;;;;;;222010;1256;22507;-52
2023/07/29 00:20:05;;;;;;;2.30;2.10;;;25.50;62.60;;;;;;222086;1259;24297;-52
2023/07/29 00:25:11;;;;;;;2.80;2.10;;;25.50;63.20;;;;;;221950;1269;25612;-48
2023/07/29 00:30:16;;;;;;;2.10;2.00;;;25.50;63.10;;;;;;222258;1248;22640;-50
2023/07/29 00:35:20;;;;;;;2.20;2.00;;;25.60;63.20;;;;;;221961;1263;24015;-52
2023/07/29 00:40:26;;;;;;;2.00;1.90;;;25.60;63.50;;;;;;221959;1264;24278;-54
2023/07/29 00:45:32;;;;;;;2.10;1.90;;;25.60;63.40;;;;;;222033;1259;22772;-53
2023/07/29 00:50:37;;;;;;;2.00;1.80;;;25.60;63.30;;;;;;222167;1257;24312;-57
2023/07/29 00:55:42;;;;;;;2.00;1.80;;;25.60;63.30;;;;;;221971;1264;24221;-52
2023/07/29 01:07:24;;;;;;;1.90;1.80;;;25.50;63.00;;;;;;213837;1263;950037;-47
2023/07/29 01:12:51;;;;;;;2.60;1.90;;;25.70;62.60;;;;;;218747;1279;24333;-49
2023/07/29 01:18:04;;;;;;;1.90;1.70;;;25.80;62.50;;;;;;219064;1286;22540;-47
2023/07/29 01:23:09;;;;;;;1.50;1.40;;;25.80;62.50;;;;;;218840;1285;23302;-52
2023/07/29 01:28:14;;;;;;;1.50;1.40;;;25.70;62.50;;;;;;218770;1285;24256;-48
2023/07/29 01:33:25;;;;;;;1.80;1.70;;;25.60;62.60;;;;;;218899;1276;25496;-48
2023/07/29 01:38:34;;;;;;;1.90;1.70;;;25.60;62.70;;;;;;218801;1289;22661;-46
2023/07/29 01:43:43;;;;;;;2.00;1.80;;;25.50;63.40;;;;;;218772;1276;23039;-49
2023/07/29 01:48:48;;;;;;;1.60;1.50;;;25.60;62.70;;;;;;219345;1280;25421;-47
2023/07/29 01:53:52;;;;;;;1.70;1.60;;;25.50;62.60;;;;;;219352;1276;25468;-46
2023/07/29 01:58:56;;;;;;;1.50;1.40;;;25.50;62.60;;;;;;219354;1283;22665;-45
2023/07/29 02:04:01;;;;;;;1.60;1.50;;;25.50;62.70;;;;;;219442;1283;24221;-46
2023/07/29 02:09:05;;;;;;;1.50;1.40;;;25.40;62.70;;;;;;219507;1280;22687;-45
2023/07/29 02:14:10;;;;;;;3.00;1.80;;;25.40;63.00;;;;;;219172;1283;323117;-46
2023/07/29 02:19:14;;;;;;;2.40;1.60;;;25.40;62.50;;;;;;219267;1280;23748;-46
2023/07/29 02:24:18;;;;;;;1.70;1.60;;;25.40;62.80;;;;;;219401;1286;22625;-45
2023/07/29 02:29:23;;;;;;;1.60;1.50;;;25.40;62.90;;;;;;219383;1283;22533;-47
2023/07/29 02:34:27;;;;;;;1.40;1.30;;;25.30;62.60;;;;;;219355;1286;24081;-47
2023/07/29 02:39:32;;;;;;;1.60;1.50;;;25.30;62.70;;;;;;219270;1283;22543;-48
2023/07/29 02:44:36;;;;;;;2.20;1.40;;;25.30;62.70;;;;;;219427;1283;22537;-45
2023/07/29 02:49:40;;;;;;;1.50;1.40;;;25.20;62.70;;;;;;219396;1284;23906;-48
2023/07/29 02:54:45;;;;;;;1.80;1.70;;;25.30;62.70;;;;;;219531;1286;25249;-48
2023/07/29 02:59:49;;;;;;;1.50;1.40;;;25.30;62.80;;;;;;219292;1281;22612;-47
2023/07/29 03:04:53;;;;;;;1.70;1.30;;;25.20;62.60;;;;;;219246;1280;22546;-46
2023/07/29 03:09:57;;;;;;;1.50;1.20;;;25.20;62.50;;;;;;219405;1280;22531;-47
2023/07/29 03:15:03;;;;;;;1.80;1.20;;;25.20;62.90;;;;;;219500;1280;24231;-48
2023/07/29 03:20:07;;;;;;;1.10;1.10;;;25.20;62.50;;;;;;219266;1273;22655;-48
2023/07/29 03:25:12;;;;;;;1.60;1.50;;;25.30;62.30;;;;;;219489;1280;22540;-48
2023/07/29 03:30:20;;;;;;;1.30;1.20;;;25.30;62.80;;;;;;219340;1273;24349;-45
2023/07/29 03:35:25;;;;;;;1.50;1.40;;;25.20;62.30;;;;;;219413;1285;24216;-46
2023/07/29 03:40:29;;;;;;;1.50;1.40;;;25.20;62.40;;;;;;219486;1283;22571;-47
2023/07/29 03:45:35;;;;;;;1.40;1.30;;;25.10;62.20;;;;;;219486;1286;22655;-45
2023/07/29 03:50:39;;;;;;;1.30;1.20;;;25.10;62.40;;;;;;219369;1277;25428;-48
2023/07/29 03:55:44;;;;;;;1.40;1.30;;;25.10;62.70;;;;;;219180;1282;22553;-47
2023/07/29 04:00:48;;;;;;;3.70;1.30;;;25.10;62.20;;;;;;219420;1286;26002;-44
2023/07/29 04:05:54;;;;;;;3.30;1.30;;;25.10;62.30;;;;;;219504;1279;22830;-48
2023/07/29 04:10:58;;;;;;;1.30;1.20;;;25.10;62.10;;;;;;219296;1280;22750;-47
2023/07/29 04:16:04;;;;;;;1.50;1.50;;;25.10;62.30;;;;;;219300;1280;24416;-45
2023/07/29 04:21:08;;;;;;;2.40;1.50;;;25.10;62.30;;;;;;219350;1273;23034;-48
2023/07/29 04:26:13;;;;;;;1.90;1.20;;;25.10;62.30;;;;;;219270;1281;22560;-44
2023/07/29 04:31:19;;;;;;;1.60;1.30;;;25.10;62.00;;;;;;219432;1273;22549;-47
2023/07/29 04:36:23;;;;;;;1.10;1.10;;;25.10;62.10;;;;;;219410;1280;22544;-49
2023/07/29 04:41:27;;;;;;;1.30;1.20;;;25.10;62.50;;;;;;219312;1286;22573;-51
2023/07/29 04:46:31;;;;;;;1.10;1.00;;;25.10;62.40;;;;;;219380;1283;24326;-53
2023/07/29 04:51:37;;;;;;;1.10;1.00;;;25.10;62.10;;;;;;219343;1285;22533;-50
2023/07/29 04:56:41;;;;;;;1.90;1.30;;;25.10;62.00;;;;;;219291;1269;24203;-49
2023/07/29 05:01:45;;;;;;;1.10;1.00;;;25.10;62.10;;;;;;218982;1280;22529;-48
2023/07/29 05:06:50;;;;;;;1.20;1.20;;;25.10;62.20;;;;;;219288;1273;22914;-47
2023/07/29 05:11:54;;;;;;;1.20;1.20;;;25.10;62.00;;;;;;219433;1284;24223;-49
2023/07/29 05:16:59;;;;;;;1.30;1.20;;;25.10;61.90;;;;;;219515;1264;22713;-49
2023/07/29 05:22:03;;;;;;;1.20;1.10;;;25.10;62.00;;;;;;219384;1281;24227;-48
2023/07/29 05:27:08;;;;;;;1.10;1.10;;;25.10;61.80;;;;;;219597;1285;25397;-52
2023/07/29 05:32:12;;;;;;;3.40;1.20;;;25.20;61.90;;;;;;219456;1287;22539;-52
2023/07/29 05:37:18;;;;;;;0.90;0.90;;;25.20;62.10;;;;;;219383;1279;22682;-48
2023/07/29 05:42:22;;;;;;;1.50;1.30;;;25.20;61.90;;;;;;219309;1279;22527;-50
2023/07/29 05:47:26;;;;;;;0.90;0.90;;;25.20;61.80;;;;;;219679;1274;22550;-50
2023/07/29 05:52:32;;;;;;;1.50;1.40;;;25.20;61.80;;;;;;219573;1274;22545;-45
2023/07/29 05:57:36;;;;;;;1.20;1.10;;;25.20;61.80;;;;;;219406;1285;22665;-46
2023/07/29 06:02:43;;;;;;;1.10;1.10;;;25.20;61.80;;;;;;219476;1287;25306;-46
2023/07/29 06:07:49;;;;;;;1.10;1.10;;;25.20;61.90;;;;;;219466;1280;25525;-45
2023/07/29 06:12:54;;;;;;;1.40;0.90;;;25.10;61.90;;;;;;219538;1286;22537;-47
2023/07/29 06:17:58;;;;;;;1.30;1.10;;;25.20;62.00;;;;;;219383;1286;22588;-45
2023/07/29 06:23:04;;;;;;;1.10;1.10;;;25.20;62.00;;;;;;219378;1279;23170;-45
2023/07/29 06:28:09;;;;;;;0.90;0.90;;;25.20;62.10;;;;;;219385;1285;25246;-47
2023/07/29 06:33:14;;;;;;;1.50;1.40;;;25.30;62.50;;;;;;219200;1280;22928;-44
2023/07/29 06:38:21;;;;;;;2.40;1.80;;;25.30;62.30;;;;;;219286;1283;24335;-48
2023/07/29 06:43:25;;;;;;;1.30;1.20;;;25.30;62.20;;;;;;219173;1286;22533;-46
2023/07/29 06:48:29;;;;;;;1.30;1.20;;;25.40;62.60;;;;;;219126;1286;23950;-47
2023/07/29 06:53:34;;;;;;;1.20;1.10;;;25.40;62.10;;;;;;219479;1283;22550;-46
2023/07/29 06:58:40;;;;;;;2.20;1.10;;;25.40;62.00;;;;;;219332;1283;23492;-51
2023/07/29 07:03:45;;;;;;;0.90;0.90;;;25.50;61.30;;;;;;219335;1286;22650;-49
2023/07/29 07:08:49;;;;;;;3.20;1.00;;;25.60;61.60;;;;;;219295;1273;22599;-46
2023/07/29 07:14:05;;;;;;;3.40;1.10;;;25.50;61.50;;;;;;219707;1286;25265;-48
2023/07/29 07:19:10;;;;;;;12.20;1.60;;;25.40;61.70;;;;;;219478;1286;22533;-46
2023/07/29 07:24:16;;;;;;;10.80;1.30;;;25.40;61.70;;;;;;219505;1273;22539;-48
2023/07/29 07:29:21;;;;;;;9.00;1.50;;;25.50;61.50;;;;;;219311;1280;22643;-48
2023/07/29 07:34:28;;;;;;;7.20;1.30;;;25.70;61.50;;;;;;219375;1286;24208;-47
2023/07/29 07:39:33;;;;;;;6.00;1.50;;;25.70;61.90;;;;;;219577;1280;24225;-46
2023/07/29 07:44:37;;;;;;;6.90;1.10;;;25.70;61.50;;;;;;219465;1280;22544;-49
2023/07/29 07:49:41;;;;;;;9.10;2.20;;;25.70;62.30;;;;;;219379;1280;22658;-45
2023/07/29 07:54:45;;;;;;;2.40;1.50;;;25.60;62.80;;;;;;219426;1283;24705;-48
2023/07/29 07:59:52;;;;;;;3.30;1.40;;;25.70;63.40;;;;;;219256;1273;22537;-47
2023/07/29 08:04:56;;;;;;;2.50;1.20;;;25.70;63.30;;;;;;219317;1264;22531;-44
2023/07/29 08:10:01;;;;;;;1.90;1.40;;;25.70;64.60;;;;;;219402;1283;24994;-49
2023/07/29 08:15:06;;;;;;;4.20;1.70;;;25.70;64.80;;;;;;219441;1280;22543;-46
2023/07/29 08:20:10;;;;;;;5.10;1.50;;;25.70;64.00;;;;;;219434;1280;25118;-46
2023/07/29 08:25:14;;;;;;;1.90;1.70;;;25.70;64.10;;;;;;219255;1277;25978;-48
2023/07/29 08:30:19;;;;;;;3.10;1.50;;;25.90;63.90;;;;;;219681;1285;22557;-49
2023/07/29 08:35:27;;;;;;;2.60;1.50;;;26.00;64.20;;;;;;219579;1284;22572;-47
2023/07/29 08:40:35;;;;;;;3.20;1.30;;;26.00;64.00;;;;;;219220;1286;22842;-44
2023/07/29 08:45:40;;;;;;;2.40;1.40;;;26.10;64.20;;;;;;219558;1283;22530;-46
2023/07/29 08:50:45;;;;;;;3.90;1.20;;;26.00;63.40;;;;;;219372;1287;22544;-45
2023/07/29 08:55:49;;;;;;;1.40;1.30;;;26.00;63.60;;;;;;218934;1280;22678;-49
2023/07/29 09:00:54;;;;;;;10.30;1.40;;;26.10;63.00;;;;;;219169;1279;22628;-44
2023/07/29 09:05:59;;;;;;;1.30;1.20;;;26.10;62.80;;;;;;220050;1280;23823;-48
2023/07/29 09:11:03;;;;;;;2.10;1.60;;;26.00;62.60;;;;;;219308;1279;22664;-49
2023/07/29 09:16:08;;;;;;;2.90;1.30;;;26.20;62.50;;;;;;219302;1283;22553;-50
2023/07/29 09:21:15;;;;;;;3.50;1.40;;;26.10;62.30;;;;;;219876;1283;22567;-53
2023/07/29 09:26:24;;;;;;;1.50;1.20;;;26.00;61.90;;;;;;219168;1286;26099;-52
2023/07/29 09:31:30;;;;;;;1.10;1.10;;;26.10;62.00;;;;;;221470;1280;22604;-49
2023/07/29 09:36:35;;;;;;;2.50;1.10;;;26.20;61.70;;;;;;219355;1273;22964;-49
2023/07/29 09:41:40;;;;;;;4.30;1.20;;;26.00;61.80;;;;;;219320;1283;22616;-49
2023/07/29 09:46:46;;;;;;;2.70;1.00;;;26.20;61.90;;;;;;219734;1283;25516;-48
2023/07/29 09:51:56;;;;;;;1.70;1.00;;;26.30;61.50;;;;;;219528;1276;23933;-49
2023/07/29 09:57:00;;;;;;;2.10;1.30;;;26.30;61.30;;;;;;219453;1280;22814;-53
2023/07/29 10:02:05;;;;;;;6.70;1.50;;;26.30;61.30;;;;;;219393;1273;22658;-49
2023/07/29 10:07:10;;;;;;;2.10;1.00;;;26.50;61.10;;;;;;219188;1283;22541;-47
2023/07/29 10:12:15;;;;;;;2.60;2.40;;;26.50;60.30;;;;;;223416;1286;22546;-49
2023/07/29 10:17:23;;;;;;;4.60;3.10;;;26.50;60.00;;;;;;219232;1280;22554;-47
2023/07/29 10:22:37;;;;;;;2.40;2.20;;;26.60;59.80;;;;;;219488;1283;25430;-47
2023/07/29 10:27:49;;;;;;;4.80;2.40;;;26.60;60.30;;;;;;219508;1283;22768;-57
2023/07/29 10:32:54;;;;;;;4.20;2.20;;;26.60;60.60;;;;;;219530;1286;22544;-56
2023/07/29 10:37:59;;;;;;;2.70;1.90;;;26.50;60.70;;;;;;219627;1264;25582;-66
2023/07/29 10:43:11;;;;;;;2.10;1.90;;;26.50;60.80;;;;;;219445;1264;25324;-58
2023/07/29 10:48:34;;;;;;;;;;;26.50;61.00;;;;;;219453;1280;24393;-57
2023/07/29 10:53:39;;;;;;;1.50;1.40;;;26.60;60.80;;;;;;219634;1271;22592;-56
2023/07/29 10:58:43;;;;;;;1.60;1.50;;;26.60;61.00;;;;;;219490;1286;22541;-55
2023/07/29 11:04:20;;;;;;;1.70;1.60;;;26.60;60.60;;;;;;219488;1263;24219;-59
2023/07/29 11:09:46;;;;;;;3.00;1.70;;;26.60;60.60;;;;;;219500;1280;22570;-56
2023/07/29 11:14:50;;;;;;;2.00;1.50;;;26.70;60.50;;;;;;219383;1283;22624;-56
2023/07/29 11:19:59;;;;;;;1.70;1.60;;;26.70;60.20;;;;;;219140;1287;22882;-58
2023/07/29 11:25:05;;;;;;;2.70;1.80;;;26.80;60.60;;;;;;219343;1283;22653;-58
2023/07/29 11:30:14;;;;;;;1.80;1.50;;;26.70;60.50;;;;;;219348;1280;22600;-59
2023/07/29 11:35:19;;;;;;;3.00;2.40;;;26.70;60.50;;;;;;219604;1279;25587;-59
2023/07/29 11:40:24;;;;;;;1.70;1.60;;;26.80;60.10;;;;;;219192;1283;23934;-59
2023/07/29 11:45:29;;;;;;;2.00;1.60;;;26.80;59.90;;;;;;219341;1280;22748;-61
2023/07/29 11:50:55;;;;;;;1.70;1.60;;;26.80;60.20;;;;;;219205;1283;24308;-59
2023/07/29 11:55:59;;;;;;;1.50;1.40;;;26.80;59.80;;;;;;219538;1280;22619;-56
2023/07/29 12:01:03;;;;;;;2.10;1.90;;;26.90;59.40;;;;;;219383;1280;23327;-56
2023/07/29 12:06:08;;;;;;;1.90;1.70;;;26.90;59.90;;;;;;219700;1280;22581;-57
2023/07/29 12:11:12;;;;;;;5.90;5.60;;;26.80;60.70;;;;;;219762;1279;25355;-57
2023/07/29 12:16:20;;;;;;;7.60;6.80;;;26.90;60.60;;;;;;219409;1286;22552;-58
2023/07/29 12:21:24;;;;;;;5.30;4.80;;;26.90;60.90;;;;;;219071;1283;22722;-54
2023/07/29 12:26:29;;;;;;;2.90;2.70;;;26.90;60.50;;;;;;219428;1280;24242;-58
2023/07/29 12:31:37;;;;;;;2.00;1.90;;;27.00;60.20;;;;;;219269;1273;22550;-59
2023/07/29 12:36:43;;;;;;;4.20;1.60;;;27.00;58.60;;;;;;219424;1283;23493;-58
2023/07/29 12:41:49;;;;;;;1.70;1.60;;;27.10;57.30;;;;;;219346;1280;24196;-58
2023/07/29 12:46:53;;;;;;;2.40;1.70;;;26.90;57.10;;;;;;219489;1280;22688;-50
2023/07/29 12:52:00;;;;;;;2.30;2.10;;;26.80;56.20;;;;;;219316;1273;22589;-46
2023/07/29 12:57:05;;;;;;;15.70;9.80;;;26.80;56.50;;;;;;219466;1286;22603;-48
2023/07/29 13:02:09;;;;;;;11.80;7.10;;;26.90;56.20;;;;;;219165;1280;22527;-46
2023/07/29 13:07:13;;;;;;;6.20;3.70;;;27.00;56.10;;;;;;219320;1280;22533;-47
2023/07/29 13:12:17;;;;;;;3.70;2.60;;;27.00;56.40;;;;;;218980;1273;22575;-45
2023/07/29 13:17:23;;;;;;;5.90;2.20;;;27.00;56.20;;;;;;219235;1283;22530;-49
2023/07/29 13:22:27;;;;;;;2.60;1.80;;;27.00;55.80;;;;;;219305;1286;22533;-55
2023/07/29 13:27:31;;;;;;;4.30;1.60;;;27.10;56.30;;;;;;219407;1280;22769;-55
2023/07/29 13:32:35;;;;;;;2.20;1.20;;;27.10;55.50;;;;;;219301;1286;22625;-58
2023/07/29 13:37:40;;;;;;;2.90;1.50;;;27.10;55.60;;;;;;219233;1283;25515;-56
2023/07/29 13:42:44;;;;;;;1.20;1.10;;;27.10;55.80;;;;;;219504;1280;22873;-56
2023/07/29 13:47:50;;;;;;;1.30;1.20;;;27.10;55.90;;;;;;219264;1283;24206;-54
2023/07/29 13:52:55;;;;;;;2.70;1.40;;;27.10;56.00;;;;;;219312;1279;24236;-50
2023/07/29 13:57:59;;;;;;;4.60;1.60;;;27.20;56.30;;;;;;219428;1273;24272;-49
2023/07/29 14:03:04;;;;;;;2.70;0.90;;;27.10;56.50;;;;;;219407;1280;24071;-51
2023/07/29 14:08:08;;;;;;;1.80;1.00;;;27.20;56.80;;;;;;219371;1271;24224;-54
2023/07/29 14:13:12;;;;;;;2.30;1.30;;;27.30;56.70;;;;;;219212;1272;249228;-51
2023/07/29 14:18:17;;;;;;;1.20;1.00;;;27.30;57.20;;;;;;219383;1283;22636;-48
2023/07/29 14:23:22;;;;;;;4.40;1.30;;;27.30;57.40;;;;;;219157;1276;25378;-50
2023/07/29 14:28:26;;;;;;;0.90;0.90;;;27.30;56.70;;;;;;219446;1280;22548;-50
2023/07/29 14:33:31;;;;;;;2.60;1.70;;;27.20;57.00;;;;;;219300;1280;22534;-52
2023/07/29 14:38:36;;;;;;;2.80;1.20;;;27.10;56.40;;;;;;219442;1279;23903;-47
2023/07/29 14:43:40;;;;;;;1.70;1.00;;;27.10;56.70;;;;;;219667;1280;24227;-49
2023/07/29 14:48:46;;;;;;;3.40;1.20;;;27.10;56.80;;;;;;219543;1280;22546;-48
2023/07/29 14:53:51;;;;;;;2.30;1.20;;;27.10;56.90;;;;;;219216;1276;24240;-51
2023/07/29 14:58:55;;;;;;;1.10;1.00;;;27.00;56.70;;;;;;220291;1283;22996;-50
2023/07/29 15:03:59;;;;;;;1.20;1.10;;;27.00;57.00;;;;;;219598;1280;22549;-49
2023/07/29 15:09:03;;;;;;;2.40;1.00;;;27.10;57.00;;;;;;219560;1280;25381;-47
2023/07/29 15:14:07;;;;;;;1.50;1.30;;;27.20;56.90;;;;;;219303;1286;22530;-48
2023/07/29 15:19:14;;;;;;;3.10;1.50;;;27.10;56.80;;;;;;219491;1280;25267;-48
2023/07/29 15:24:21;;;;;;;3.50;1.40;;;27.10;56.90;;;;;;219524;1280;24371;-46
2023/07/29 15:29:25;;;;;;;5.30;1.30;;;27.10;57.00;;;;;;219316;1280;25271;-46
2023/07/29 15:34:31;;;;;;;3.60;1.60;;;27.00;56.60;;;;;;219410;1285;22731;-47
2023/07/29 15:39:35;;;;;;;1.70;1.40;;;27.20;56.60;;;;;;219124;1280;22540;-44
2023/07/29 15:44:41;;;;;;;7.90;1.80;;;27.10;56.60;;;;;;219139;1280;25488;-46
2023/07/29 15:49:46;;;;;;;4.10;1.60;;;27.10;57.00;;;;;;219451;1280;22530;-48
2023/07/29 15:54:51;;;;;;;2.00;1.60;;;27.10;57.00;;;;;;219349;1279;22820;-48
2023/07/29 15:59:56;;;;;;;3.90;1.40;;;27.10;56.80;;;;;;219174;1280;25357;-49
2023/07/29 16:05:00;;;;;;;1.80;1.20;;;27.10;57.10;;;;;;219393;1280;22540;-46
2023/07/29 16:10:06;;;;;;;2.00;1.10;;;27.10;57.00;;;;;;219427;1283;25390;-48
2023/07/29 16:15:10;;;;;;;2.90;1.60;;;27.00;57.20;;;;;;219326;1273;22537;-46
2023/07/29 16:20:14;;;;;;;1.70;1.20;;;27.00;57.60;;;;;;219530;1280;22544;-48
2023/07/29 16:25:19;;;;;;;8.20;4.30;;;27.00;57.30;;;;;;219251;1286;22703;-45
2023/07/29 16:30:23;;;;;;;3.90;1.90;;;27.00;59.30;;;;;;219252;1286;22656;-46
2023/07/29 16:35:27;;;;;;;4.10;1.80;;;27.00;59.20;;;;;;219298;1283;22610;-48
2023/07/29 16:40:32;;;;;;;3.30;1.40;;;27.00;59.00;;;;;;219616;1286;22553;-46
2023/07/29 16:45:36;;;;;;;1.30;1.20;;;27.00;58.70;;;;;;219271;1264;25370;-46
2023/07/29 16:50:41;;;;;;;1.40;1.30;;;26.80;58.50;;;;;;219397;1285;23919;-47
2023/07/29 16:55:45;;;;;;;1.60;1.40;;;26.90;58.90;;;;;;219241;1279;22534;-45
2023/07/29 17:00:49;;;;;;;2.30;1.30;;;26.80;58.30;;;;;;220201;1280;26536;-47
2023/07/29 17:05:56;;;;;;;1.30;1.20;;;26.80;58.20;;;;;;218996;1277;23357;-47
2023/07/29 17:11:01;;;;;;;0.90;0.80;;;26.80;58.00;;;;;;218939;1283;24190;-46
2023/07/29 17:16:05;;;;;;;4.40;1.40;;;26.70;58.00;;;;;;218932;1286;22802;-49
2023/07/29 17:21:09;;;;;;;3.30;1.20;;;26.70;58.20;;;;;;218924;1289;22567;-44
2023/07/29 17:26:13;;;;;;;1.60;1.20;;;26.80;58.10;;;;;;218984;1273;22719;-48
2023/07/29 17:31:17;;;;;;;0.90;0.90;;;26.90;57.50;;;;;;218634;1275;22622;-45
2023/07/29 17:36:22;;;;;;;1.50;1.10;;;27.00;57.30;;;;;;221141;1285;22654;-46
2023/07/29 17:41:26;;;;;;;3.60;0.90;;;27.10;57.00;;;;;;223348;1280;24437;-48
2023/07/29 17:46:30;;;;;;;5.40;1.20;;;27.20;56.70;;;;;;219529;1285;22536;-46
2023/07/29 17:51:35;;;;;;;2.00;0.90;;;27.10;57.30;;;;;;219335;1279;22546;-44
2023/07/29 17:56:39;;;;;;;1.30;1.20;;;27.10;57.60;;;;;;219375;1286;22647;-45
2023/07/29 18:01:45;;;;;;;2.50;1.40;;;27.00;57.30;;;;;;219427;1286;22522;-49
2023/07/29 18:06:49;;;;;;;1.80;1.50;;;27.00;57.50;;;;;;219312;1280;22549;-46
2023/07/29 18:11:54;;;;;;;1.00;0.90;;;26.90;57.90;;;;;;219410;1286;22525;-51
2023/07/29 18:16:58;;;;;;;0.80;0.80;;;26.90;57.70;;;;;;219343;1282;22533;-44
2023/07/29 18:22:02;;;;;;;2.00;1.20;;;26.90;57.80;;;;;;219331;1281;24285;-44
2023/07/29 18:27:08;;;;;;;1.00;0.90;;;26.90;57.90;;;;;;219495;1280;24214;-44
2023/07/29 18:32:12;;;;;;;0.90;0.90;;;26.80;58.40;;;;;;219535;1279;25663;-50
2023/07/29 18:37:19;;;;;;;0.90;0.90;;;26.80;57.80;;;;;;219467;1285;22560;-47
2023/07/29 18:42:24;;;;;;;2.30;1.20;;;26.90;57.90;;;;;;219548;1280;22553;-47
2023/07/29 18:47:29;;;;;;;1.20;1.10;;;26.80;58.20;;;;;;219508;1286;23179;-46
2023/07/29 18:52:34;;;;;;;1.00;1.00;;;26.70;58.00;;;;;;219442;1280;22661;-45
2023/07/29 18:57:41;;;;;;;1.10;1.00;;;26.80;58.00;;;;;;219318;1285;22701;-44
2023/07/29 19:02:46;;;;;;;2.90;1.10;;;26.70;57.60;;;;;;219535;1286;25437;-46
2023/07/29 19:07:50;;;;;;;1.50;1.20;;;26.70;58.00;;;;;;219321;1281;24247;-48
2023/07/29 19:12:57;;;;;;;1.40;1.30;;;26.70;58.00;;;;;;219356;1286;23859;-45
2023/07/29 19:18:02;;;;;;;1.50;1.30;;;26.70;57.90;;;;;;219430;1274;22648;-47
2023/07/29 19:23:06;;;;;;;0.90;0.90;;;26.70;58.00;;;;;;219528;1280;22549;-46
2023/07/29 19:28:10;;;;;;;1.30;1.20;;;26.70;58.30;;;;;;219353;1286;22534;-43
2023/07/29 19:33:15;;;;;;;1.20;1.10;;;26.70;58.10;;;;;;219401;1286;22590;-44
2023/07/29 19:38:21;;;;;;;0.90;0.90;;;26.60;58.10;;;;;;219520;1280;22693;-47
2023/07/29 19:43:27;;;;;;;1.30;1.20;;;26.50;57.80;;;;;;219368;1285;22535;-45
2023/07/29 19:48:32;;;;;;;1.30;1.00;;;26.50;58.00;;;;;;219478;1271;25525;-46
2023/07/29 19:53:38;;;;;;;1.10;1.00;;;26.50;57.40;;;;;;219443;1280;25651;-44
2023/07/29 19:58:43;;;;;;;1.80;1.30;;;26.50;57.50;;;;;;219516;1283;22536;-46
2023/07/29 20:03:50;;;;;;;1.30;1.20;;;26.60;58.00;;;;;;219565;1283;26543;-45
2023/07/29 20:08:54;;;;;;;2.20;1.20;;;26.50;57.60;;;;;;219468;1280;22661;-45
2023/07/29 20:13:59;;;;;;;3.00;1.10;;;26.50;57.40;;;;;;219527;1271;22659;-46
2023/07/29 20:19:06;;;;;;;2.50;1.20;;;26.50;57.40;;;;;;219422;1274;22642;-48
2023/07/29 20:24:12;;;;;;;2.70;1.50;;;26.50;57.50;;;;;;219601;1286;24304;-46
2023/07/29 20:29:17;;;;;;;2.10;1.10;;;26.50;57.60;;;;;;219578;1286;23017;-47
2023/07/29 20:34:21;;;;;;;0.90;0.90;;;26.40;57.60;;;;;;219568;1286;24221;-45
2023/07/29 20:39:26;;;;;;;3.00;1.00;;;26.30;57.00;;;;;;219445;1287;22822;-47
2023/07/29 20:44:33;;;;;;;1.00;1.00;;;26.30;56.80;;;;;;219512;1286;24328;-48
2023/07/29 20:49:38;;;;;;;1.60;1.30;;;26.40;56.80;;;;;;219318;1283;24226;-48
2023/07/29 20:54:43;;;;;;;2.50;1.40;;;26.40;56.90;;;;;;219466;1281;24015;-45
2023/07/29 20:59:48;;;;;;;2.40;1.30;;;26.40;57.00;;;;;;219578;1279;22648;-47
2023/07/29 21:04:52;;;;;;;1.70;1.00;;;26.40;57.40;;;;;;219468;1283;22533;-47
2023/07/29 21:09:56;;;;;;;1.10;1.00;;;26.40;57.60;;;;;;219361;1287;22534;-46
2023/07/29 21:15:01;;;;;;;1.20;1.10;;;26.30;57.80;;;;;;219265;1285;24243;-46
2023/07/29 21:20:06;;;;;;;1.20;1.10;;;26.30;57.90;;;;;;219386;1283;25350;-47
2023/07/29 21:25:10;;;;;;;1.00;0.90;;;26.30;58.10;;;;;;219434;1284;22665;-48
2023/07/29 21:30:15;;;;;;;1.20;1.10;;;26.30;58.20;;;;;;219482;1286;22534;-47
2023/07/29 21:35:19;;;;;;;1.20;1.10;;;26.30;58.40;;;;;;219521;1283;25385;-46
2023/07/29 21:40:23;;;;;;;1.10;1.10;;;26.30;58.60;;;;;;219344;1286;22610;-47
2023/07/29 21:45:27;;;;;;;3.50;1.30;;;26.30;58.70;;;;;;218899;1289;25282;-49
2023/07/29 21:50:32;;;;;;;1.40;1.10;;;26.30;58.80;;;;;;218906;1282;22550;-48
2023/07/29 21:55:41;;;;;;;2.60;1.20;;;26.20;58.90;;;;;;218482;1289;25418;-46
2023/07/29 22:00:50;;;;;;;1.30;1.20;;;26.20;59.10;;;;;;218675;1279;24207;-46
2023/07/29 22:06:05;;;;;;;1.50;1.00;;;26.20;59.00;;;;;;219363;1283;22946;-47
2023/07/29 22:11:11;;;;;;;1.40;1.30;;;26.20;59.10;;;;;;219467;1280;22791;-47
2023/07/29 22:16:15;;;;;;;2.10;1.00;;;26.20;59.20;;;;;;219288;1280;24371;-45
2023/07/29 22:21:19;;;;;;;2.60;1.10;;;26.20;59.20;;;;;;219420;1280;22536;-46
2023/07/29 22:26:24;;;;;;;1.00;0.90;;;26.10;59.60;;;;;;219403;1283;22534;-48
2023/07/29 22:31:28;;;;;;;1.80;1.10;;;26.10;59.30;;;;;;219587;1283;23510;-44
2023/07/29 22:36:33;;;;;;;1.30;1.20;;;26.10;59.30;;;;;;219634;1283;22675;-46
2023/07/29 22:41:37;;;;;;;1.60;1.20;;;26.10;59.40;;;;;;219547;1281;22592;-47
2023/07/29 22:46:45;;;;;;;2.20;1.30;;;26.10;59.70;;;;;;219407;1265;24288;-47
2023/07/29 22:51:51;;;;;;;1.90;1.30;;;26.00;59.30;;;;;;219324;1283;22534;-45
2023/07/29 22:56:55;;;;;;;4.50;1.70;;;26.00;59.50;;;;;;219376;1286;22555;-49
2023/07/29 23:01:59;;;;;;;1.90;1.40;;;26.00;59.50;;;;;;219290;1274;23514;-46
2023/07/29 23:07:04;;;;;;;3.50;1.90;;;26.00;59.00;;;;;;219450;1286;22545;-46
2023/07/29 23:12:08;;;;;;;4.00;1.90;;;26.00;59.00;;;;;;219528;1286;24246;-47
2023/07/29 23:17:12;;;;;;;2.10;1.90;;;26.00;59.00;;;;;;219342;1270;24240;-46
2023/07/29 23:22:17;;;;;;;2.00;1.80;;;26.00;58.90;;;;;;219474;1280;22802;-49
2023/07/29 23:27:21;;;;;;;4.70;2.50;;;26.00;58.90;;;;;;219394;1283;24233;-46
2023/07/29 23:32:25;;;;;;;2.70;1.90;;;26.00;58.80;;;;;;219486;1281;22539;-45
2023/07/29 23:37:29;;;;;;;2.50;2.20;;;26.00;58.80;;;;;;219442;1280;22543;-44
2023/07/29 23:42:34;;;;;;;3.50;1.60;;;26.00;59.10;;;;;;219394;1280;22530;-46
2023/07/29 23:47:38;;;;;;;3.30;2.10;;;25.90;58.20;;;;;;219318;1286;22533;-47
2023/07/29 23:52:42;;;;;;;4.90;2.20;;;25.90;58.50;;;;;;219311;1285;24317;-47
2023/07/29 23:57:47;;;;;;;4.00;2.00;;;25.90;58.50;;;;;;219400;1283;22537;-47
